sensor_id;sensor_type;location;lat;lon;timestamp;pressure;altitude;pressure_sealevel;temperature;humidity
58473;BME280;44775;51.564;5.460;2023-12-07T00:01:07;101671.72;;;-0.83;100.00
58473;BME280;44775;51.564;5.460;2023-12-07T00:03:32;101665.91;;;-0.90;100.00
58473;BME280;44775;51.564;5.460;2023-12-07T00:05:58;101668.53;;;-0.90;100.00
58473;BME280;44775;51.564;5.460;2023-12-07T00:08:23;101664.06;;;-0.88;100.00
58473;BME280;44775;51.564;5.460;2023-12-07T00:10:48;101664.25;;;-0.74;100.00
58473;BME280;44775;51.564;5.460;2023-12-07T00:13:13;101654.81;;;-0.78;100.00
58473;BME280;44775;51.564;5.460;2023-12-07T00:15:39;101664.59;;;-0.81;100.00
58473;BME280;44775;51.564;5.460;2023-12-07T00:18:04;101653.25;;;-0.82;100.00
58473;BME280;44775;51.564;5.460;2023-12-07T00:20:30;101659.34;;;-0.81;100.00
58473;BME280;44775;51.564;5.460;2023-12-07T00:22:55;101654.63;;;-0.92;100.00
58473;BME280;44775;51.564;5.460;2023-12-07T00:25:21;101654.19;;;-0.83;100.00
58473;BME280;44775;51.564;5.460;2023-12-07T00:27:47;101650.72;;;-0.83;100.00
58473;BME280;44775;51.564;5.460;2023-12-07T00:30:12;101659.16;;;-0.77;100.00
58473;BME280;44775;51.564;5.460;2023-12-07T00:32:38;101644.78;;;-0.87;100.00
58473;BME280;44775;51.564;5.460;2023-12-07T00:35:04;101655.81;;;-0.80;100.00
58473;BME280;44775;51.564;5.460;2023-12-07T00:37:29;101658.06;;;-0.73;100.00
58473;BME280;44775;51.564;5.460;2023-12-07T00:39:54;101656.59;;;-0.78;100.00
58473;BME280;44775;51.564;5.460;2023-12-07T00:42:20;101655.19;;;-0.68;100.00
58473;BME280;44775;51.564;5.460;2023-12-07T00:44:45;101666.56;;;-0.67;100.00
58473;BME280;44775;51.564;5.460;2023-12-07T00:47:10;101649.41;;;-0.75;100.00
58473;BME280;44775;51.564;5.460;2023-12-07T00:49:39;101663.94;;;-0.67;100.00
58473;BME280;44775;51.564;5.460;2023-12-07T00:52:08;101662.38;;;-0.72;100.00
58473;BME280;44775;51.564;5.460;2023-12-07T00:54:33;101653.25;;;-0.82;100.00
58473;BME280;44775;51.564;5.460;2023-12-07T00:56:58;101659.22;;;-0.78;100.00
58473;BME280;44775;51.564;5.460;2023-12-07T00:59:24;101646.72;;;-0.90;100.00
58473;BME280;44775;51.564;5.460;2023-12-07T01:01:50;101658.22;;;-0.76;100.00
58473;BME280;44775;51.564;5.460;2023-12-07T01:04:15;101649.88;;;-0.84;100.00
58473;BME280;44775;51.564;5.460;2023-12-07T01:06:41;101656.44;;;-0.75;100.00
58473;BME280;44775;51.564;5.460;2023-12-07T01:09:07;101665.63;;;-0.84;100.00
58473;BME280;44775;51.564;5.460;2023-12-07T01:11:33;101663.81;;;-1.01;100.00
58473;BME280;44775;51.564;5.460;2023-12-07T01:13:58;101667.44;;;-1.03;100.00
58473;BME280;44775;51.564;5.460;2023-12-07T01:16:24;101679.97;;;-0.91;100.00
58473;BME280;44775;51.564;5.460;2023-12-07T01:18:51;101680.25;;;-0.97;100.00
58473;BME280;44775;51.564;5.460;2023-12-07T01:21:16;101678.75;;;-0.84;100.00
58473;BME280;44775;51.564;5.460;2023-12-07T01:23:41;101678.41;;;-0.95;100.00
58473;BME280;44775;51.564;5.460;2023-12-07T01:26:07;101657.00;;;-1.05;100.00
58473;BME280;44775;51.564;5.460;2023-12-07T01:28:33;101676.53;;;-1.10;100.00
58473;BME280;44775;51.564;5.460;2023-12-07T01:30:59;101670.50;;;-1.12;100.00
58473;BME280;44775;51.564;5.460;2023-12-07T01:33:24;101668.22;;;-1.01;100.00
58473;BME280;44775;51.564;5.460;2023-12-07T01:35:50;101679.72;;;-1.04;100.00
58473;BME280;44775;51.564;5.460;2023-12-07T01:38:15;101676.16;;;-1.03;100.00
58473;BME280;44775;51.564;5.460;2023-12-07T01:40:40;101677.16;;;-1.05;100.00
58473;BME280;44775;51.564;5.460;2023-12-07T01:43:06;101661.72;;;-1.11;100.00
58473;BME280;44775;51.564;5.460;2023-12-07T01:45:31;101677.88;;;-1.21;100.00
58473;BME280;44775;51.564;5.460;2023-12-07T01:47:56;101680.66;;;-1.24;100.00
58473;BME280;44775;51.564;5.460;2023-12-07T01:50:23;101682.16;;;-1.18;100.00
58473;BME280;44775;51.564;5.460;2023-12-07T01:52:52;101689.00;;;-1.15;100.00
58473;BME280;44775;51.564;5.460;2023-12-07T01:55:19;101678.03;;;-1.24;100.00
58473;BME280;44775;51.564;5.460;2023-12-07T01:57:46;101677.25;;;-1.26;100.00
58473;BME280;44775;51.564;5.460;2023-12-07T02:00:12;101679.31;;;-1.32;100.00
58473;BME280;44775;51.564;5.460;2023-12-07T02:02:38;101680.66;;;-1.24;100.00
58473;BME280;44775;51.564;5.460;2023-12-07T02:05:04;101676.66;;;-1.13;100.00
58473;BME280;44775;51.564;5.460;2023-12-07T02:07:30;101677.47;;;-1.11;100.00
58473;BME280;44775;51.564;5.460;2023-12-07T02:09:57;101668.66;;;-1.10;100.00
58473;BME280;44775;51.564;5.460;2023-12-07T02:12:23;101683.09;;;-1.02;100.00
58473;BME280;44775;51.564;5.460;2023-12-07T02:14:49;101669.28;;;-1.05;100.00
58473;BME280;44775;51.564;5.460;2023-12-07T02:17:20;101681.50;;;-1.04;100.00
58473;BME280;44775;51.564;5.460;2023-12-07T02:20:01;101675.03;;;-0.97;100.00
58473;BME280;44775;51.564;5.460;2023-12-07T02:22:41;101667.50;;;-1.05;100.00
58473;BME280;44775;51.564;5.460;2023-12-07T02:25:09;101679.91;;;-1.08;100.00
58473;BME280;44775;51.564;5.460;2023-12-07T02:30:05;101680.56;;;-1.03;100.00
58473;BME280;44775;51.564;5.460;2023-12-07T02:32:30;101694.50;;;-1.03;100.00
58473;BME280;44775;51.564;5.460;2023-12-07T02:34:56;101656.41;;;-1.29;100.00
58473;BME280;44775;51.564;5.460;2023-12-07T02:37:21;101698.22;;;-1.07;100.00
58473;BME280;44775;51.564;5.460;2023-12-07T02:39:50;101674.59;;;-1.07;100.00
58473;BME280;44775;51.564;5.460;2023-12-07T02:42:16;101673.19;;;-1.14;100.00
58473;BME280;44775;51.564;5.460;2023-12-07T02:44:42;101677.81;;;-1.19;100.00
58473;BME280;44775;51.564;5.460;2023-12-07T02:47:08;101681.28;;;-1.19;100.00
58473;BME280;44775;51.564;5.460;2023-12-07T02:49:33;101676.97;;;-1.20;100.00
58473;BME280;44775;51.564;5.460;2023-12-07T02:51:59;101675.28;;;-1.21;100.00
58473;BME280;44775;51.564;5.460;2023-12-07T02:54:24;101684.97;;;-1.23;100.00
58473;BME280;44775;51.564;5.460;2023-12-07T02:56:49;101686.97;;;-1.28;100.00
58473;BME280;44775;51.564;5.460;2023-12-07T02:59:15;101687.44;;;-1.20;100.00
58473;BME280;44775;51.564;5.460;2023-12-07T03:01:40;101683.50;;;-1.28;100.00
58473;BME280;44775;51.564;5.460;2023-12-07T03:04:05;101679.81;;;-1.24;100.00
58473;BME280;44775;51.564;5.460;2023-12-07T03:06:31;101672.13;;;-1.29;100.00
58473;BME280;44775;51.564;5.460;2023-12-07T03:08:56;101682.47;;;-1.26;100.00
58473;BME280;44775;51.564;5.460;2023-12-07T03:11:21;101678.44;;;-1.33;100.00
58473;BME280;44775;51.564;5.460;2023-12-07T03:13:47;101689.88;;;-1.34;100.00
58473;BME280;44775;51.564;5.460;2023-12-07T03:16:12;101684.91;;;-1.40;100.00
58473;BME280;44775;51.564;5.460;2023-12-07T03:18:37;101692.06;;;-1.44;100.00
58473;BME280;44775;51.564;5.460;2023-12-07T03:21:03;101682.50;;;-1.45;100.00
58473;BME280;44775;51.564;5.460;2023-12-07T03:23:28;101685.97;;;-1.44;100.00
58473;BME280;44775;51.564;5.460;2023-12-07T03:25:53;101696.53;;;-1.46;100.00
58473;BME280;44775;51.564;5.460;2023-12-07T03:28:19;101692.19;;;-1.47;100.00
58473;BME280;44775;51.564;5.460;2023-12-07T03:30:44;101694.91;;;-1.48;100.00
58473;BME280;44775;51.564;5.460;2023-12-07T03:33:09;101689.66;;;-1.48;100.00
58473;BME280;44775;51.564;5.460;2023-12-07T03:35:34;101690.16;;;-1.40;100.00
58473;BME280;44775;51.564;5.460;2023-12-07T03:38:00;101684.44;;;-1.48;100.00
58473;BME280;44775;51.564;5.460;2023-12-07T03:40:25;101689.81;;;-1.51;100.00
58473;BME280;44775;51.564;5.460;2023-12-07T03:42:51;101699.22;;;-1.47;100.00
58473;BME280;44775;51.564;5.460;2023-12-07T03:45:16;101688.78;;;-1.49;100.00
58473;BME280;44775;51.564;5.460;2023-12-07T03:47:41;101697.66;;;-1.51;100.00
58473;BME280;44775;51.564;5.460;2023-12-07T03:50:07;101692.63;;;-1.56;100.00
58473;BME280;44775;51.564;5.460;2023-12-07T03:52:32;101702.78;;;-1.48;100.00
58473;BME280;44775;51.564;5.460;2023-12-07T03:54:58;101703.81;;;-1.52;100.00
58473;BME280;44775;51.564;5.460;2023-12-07T03:57:23;101706.28;;;-1.49;100.00
58473;BME280;44775;51.564;5.460;2023-12-07T03:59:48;101703.81;;;-1.52;100.00
58473;BME280;44775;51.564;5.460;2023-12-07T04:02:14;101713.03;;;-1.44;100.00
58473;BME280;44775;51.564;5.460;2023-12-07T04:04:39;101719.91;;;-1.41;100.00
58473;BME280;44775;51.564;5.460;2023-12-07T04:07:04;101710.50;;;-1.45;100.00
58473;BME280;44775;51.564;5.460;2023-12-07T04:09:29;101710.16;;;-1.37;100.00
58473;BME280;44775;51.564;5.460;2023-12-07T04:11:56;101708.50;;;-1.40;100.00
58473;BME280;44775;51.564;5.460;2023-12-07T04:14:21;101712.63;;;-1.34;100.00
58473;BME280;44775;51.564;5.460;2023-12-07T04:16:46;101712.69;;;-1.36;100.00
58473;BME280;44775;51.564;5.460;2023-12-07T04:19:12;101720.41;;;-1.33;100.00
58473;BME280;44775;51.564;5.460;2023-12-07T04:21:38;101712.63;;;-1.34;100.00
58473;BME280;44775;51.564;5.460;2023-12-07T04:24:03;101721.13;;;-1.29;100.00
58473;BME280;44775;51.564;5.460;2023-12-07T04:26:29;101720.28;;;-1.30;100.00
58473;BME280;44775;51.564;5.460;2023-12-07T04:28:54;101730.47;;;-1.24;100.00
58473;BME280;44775;51.564;5.460;2023-12-07T04:31:20;101728.56;;;-1.20;100.00
58473;BME280;44775;51.564;5.460;2023-12-07T04:33:46;101720.00;;;-1.24;100.00
58473;BME280;44775;51.564;5.460;2023-12-07T04:36:11;101730.63;;;-1.27;100.00
58473;BME280;44775;51.564;5.460;2023-12-07T04:38:37;101728.69;;;-1.23;100.00
58473;BME280;44775;51.564;5.460;2023-12-07T04:41:02;101731.59;;;-1.29;100.00
58473;BME280;44775;51.564;5.460;2023-12-07T04:43:28;101729.81;;;-1.29;100.00
58473;BME280;44775;51.564;5.460;2023-12-07T04:45:53;101728.78;;;-1.25;100.00
58473;BME280;44775;51.564;5.460;2023-12-07T04:48:19;101726.22;;;-1.26;100.00
58473;BME280;44775;51.564;5.460;2023-12-07T04:50:44;101729.69;;;-1.26;100.00
58473;BME280;44775;51.564;5.460;2023-12-07T04:53:09;101725.50;;;-1.30;100.00
58473;BME280;44775;51.564;5.460;2023-12-07T04:55:34;101727.72;;;-1.21;100.00
58473;BME280;44775;51.564;5.460;2023-12-07T04:58:00;101725.22;;;-1.24;100.00
58473;BME280;44775;51.564;5.460;2023-12-07T05:00:26;101726.50;;;-1.13;100.00
58473;BME280;44775;51.564;5.460;2023-12-07T05:02:52;101723.47;;;-1.23;100.00
58473;BME280;44775;51.564;5.460;2023-12-07T05:05:17;101713.38;;;-1.32;100.00
58473;BME280;44775;51.564;5.460;2023-12-07T05:07:43;101713.34;;;-1.31;100.00
58473;BME280;44775;51.564;5.460;2023-12-07T05:10:08;101710.44;;;-1.25;100.00
58473;BME280;44775;51.564;5.460;2023-12-07T05:12:34;101696.66;;;-1.30;100.00
58473;BME280;44775;51.564;5.460;2023-12-07T05:15:00;101700.97;;;-1.29;100.00
58473;BME280;44775;51.564;5.460;2023-12-07T05:17:26;101706.94;;;-1.25;100.00
58473;BME280;44775;51.564;5.460;2023-12-07T05:19:51;101704.47;;;-1.28;100.00
58473;BME280;44775;51.564;5.460;2023-12-07T05:22:16;101708.66;;;-1.24;100.00
58473;BME280;44775;51.564;5.460;2023-12-07T05:24:42;101709.56;;;-1.25;100.00
58473;BME280;44775;51.564;5.460;2023-12-07T05:27:07;101710.63;;;-1.29;100.00
58473;BME280;44775;51.564;5.460;2023-12-07T05:29:32;101708.66;;;-1.24;100.00
58473;BME280;44775;51.564;5.460;2023-12-07T05:31:58;101689.66;;;-1.29;100.00
58473;BME280;44775;51.564;5.460;2023-12-07T05:34:23;101706.94;;;-1.25;100.00
58473;BME280;44775;51.564;5.460;2023-12-07T05:36:48;101694.84;;;-1.28;100.00
58473;BME280;44775;51.564;5.460;2023-12-07T05:39:13;101707.81;;;-1.25;100.00
58473;BME280;44775;51.564;5.460;2023-12-07T05:41:39;101694.69;;;-1.25;100.00
58473;BME280;44775;51.564;5.460;2023-12-07T05:44:04;101696.38;;;-1.24;100.00
58473;BME280;44775;51.564;5.460;2023-12-07T05:46:30;101695.31;;;-1.20;100.00
58473;BME280;44775;51.564;5.460;2023-12-07T05:48:55;101678.97;;;-1.25;100.00
58473;BME280;44775;51.564;5.460;2023-12-07T05:51:20;101692.69;;;-1.20;100.00
58473;BME280;44775;51.564;5.460;2023-12-07T05:53:46;101695.09;;;-1.15;100.00
58473;BME280;44775;51.564;5.460;2023-12-07T05:56:11;101697.56;;;-1.12;100.00
58473;BME280;44775;51.564;5.460;2023-12-07T05:58:37;101699.47;;;-1.15;100.00
58473;BME280;44775;51.564;5.460;2023-12-07T06:01:03;101690.00;;;-1.18;100.00
58473;BME280;44775;51.564;5.460;2023-12-07T06:03:29;101687.72;;;-1.07;100.00
58473;BME280;44775;51.564;5.460;2023-12-07T06:05:54;101687.94;;;-1.11;100.00
58473;BME280;44775;51.564;5.460;2023-12-07T06:08:21;101678.88;;;-1.04;100.00
58473;BME280;44775;51.564;5.460;2023-12-07T06:10:46;101683.56;;;-1.11;100.00
58473;BME280;44775;51.564;5.460;2023-12-07T06:13:12;101688.66;;;-1.08;100.00
58473;BME280;44775;51.564;5.460;2023-12-07T06:15:38;101692.03;;;-1.06;100.00
58473;BME280;44775;51.564;5.460;2023-12-07T06:18:04;101697.22;;;-1.04;100.00
58473;BME280;44775;51.564;5.460;2023-12-07T06:20:29;101681.50;;;-1.04;100.00
58473;BME280;44775;51.564;5.460;2023-12-07T06:22:54;101698.69;;;-0.99;100.00
58473;BME280;44775;51.564;5.460;2023-12-07T06:25:20;101682.47;;;-1.07;100.00
58473;BME280;44775;51.564;5.460;2023-12-07T06:27:45;101696.84;;;-0.97;100.00
58473;BME280;44775;51.564;5.460;2023-12-07T06:30:11;101702.16;;;-0.98;100.00
58473;BME280;44775;51.564;5.460;2023-12-07T06:32:36;101690.97;;;-1.02;100.00
58473;BME280;44775;51.564;5.460;2023-12-07T06:35:02;101695.91;;;-0.96;100.00
58473;BME280;44775;51.564;5.460;2023-12-07T06:37:29;101707.25;;;-0.95;100.00
58473;BME280;44775;51.564;5.460;2023-12-07T06:39:55;101694.09;;;-0.93;100.00
58473;BME280;44775;51.564;5.460;2023-12-07T06:42:20;101694.84;;;-0.91;100.00
58473;BME280;44775;51.564;5.460;2023-12-07T06:44:49;101682.41;;;-0.88;100.00
58473;BME280;44775;51.564;5.460;2023-12-07T06:47:14;101678.94;;;-0.88;100.00
58473;BME280;44775;51.564;5.460;2023-12-07T06:49:40;101685.22;;;-0.91;100.00
58473;BME280;44775;51.564;5.460;2023-12-07T06:52:05;101682.28;;;-0.85;100.00
58473;BME280;44775;51.564;5.460;2023-12-07T06:54:31;101676.19;;;-0.85;100.00
58473;BME280;44775;51.564;5.460;2023-12-07T06:56:56;101676.41;;;-0.90;100.00
58473;BME280;44775;51.564;5.460;2023-12-07T06:59:21;101656.50;;;-0.94;100.00
58473;BME280;44775;51.564;5.460;2023-12-07T07:01:46;101669.31;;;-0.88;100.00
58473;BME280;44775;51.564;5.460;2023-12-07T07:04:12;101670.31;;;-0.90;100.00
58473;BME280;44775;51.564;5.460;2023-12-07T07:06:39;101658.06;;;-0.90;100.00
58473;BME280;44775;51.564;5.460;2023-12-07T07:09:05;101664.06;;;-0.88;100.00
58473;BME280;44775;51.564;5.460;2023-12-07T07:11:30;101664.06;;;-0.88;100.00
58473;BME280;44775;51.564;5.460;2023-12-07T07:13:55;101671.69;;;-1.01;100.00
58473;BME280;44775;51.564;5.460;2023-12-07T07:16:21;101674.97;;;-1.14;100.00
58473;BME280;44775;51.564;5.460;2023-12-07T07:18:46;101667.06;;;-0.96;100.00
58473;BME280;44775;51.564;5.460;2023-12-07T07:21:11;101679.09;;;-0.91;100.00
58473;BME280;44775;51.564;5.460;2023-12-07T07:23:37;101677.13;;;-0.86;100.00
58473;BME280;44775;51.564;5.460;2023-12-07T07:26:03;101672.66;;;-0.84;100.00
58473;BME280;44775;51.564;5.460;2023-12-07T07:28:28;101689.00;;;-0.79;100.00
58473;BME280;44775;51.564;5.460;2023-12-07T07:30:53;101693.19;;;-0.75;100.00
58473;BME280;44775;51.564;5.460;2023-12-07T07:33:18;101701.44;;;-0.83;100.00
58473;BME280;44775;51.564;5.460;2023-12-07T07:35:44;101708.84;;;-0.91;100.00
58473;BME280;44775;51.564;5.460;2023-12-07T07:38:09;101702.16;;;-0.98;100.00
58473;BME280;44775;51.564;5.460;2023-12-07T07:40:34;101696.84;;;-0.97;100.00
58473;BME280;44775;51.564;5.460;2023-12-07T07:43:01;101691.50;;;-0.95;100.00
58473;BME280;44775;51.564;5.460;2023-12-07T07:45:26;101693.66;;;-0.84;100.00
58473;BME280;44775;51.564;5.460;2023-12-07T07:47:51;101690.00;;;-0.82;100.00
58473;BME280;44775;51.564;5.460;2023-12-07T07:50:16;101688.41;;;-0.84;100.00
58473;BME280;44775;51.564;5.460;2023-12-07T07:52:42;101686.94;;;-0.73;100.00
58473;BME280;44775;51.564;5.460;2023-12-07T07:55:09;101681.94;;;-0.25;100.00
58473;BME280;44775;51.564;5.460;2023-12-07T07:57:35;101693.88;;;-0.54;100.00
58473;BME280;44775;51.564;5.460;2023-12-07T08:00:00;101682.94;;;-0.62;100.00
58473;BME280;44775;51.564;5.460;2023-12-07T08:02:25;101691.34;;;-0.73;100.00
58473;BME280;44775;51.564;5.460;2023-12-07T08:04:51;101700.47;;;-0.63;100.00
58473;BME280;44775;51.564;5.460;2023-12-07T08:07:19;101684.09;;;-0.51;100.00
58473;BME280;44775;51.564;5.460;2023-12-07T08:09:44;101679.56;;;-0.47;100.00
58473;BME280;44775;51.564;5.460;2023-12-07T08:12:09;101675.69;;;-0.40;100.00
58473;BME280;44775;51.564;5.460;2023-12-07T08:14:35;101666.19;;;-0.42;100.00
58473;BME280;44775;51.564;5.460;2023-12-07T08:17:01;101669.34;;;-0.36;100.00
58473;BME280;44775;51.564;5.460;2023-12-07T08:19:26;101672.56;;;-0.13;100.00
58473;BME280;44775;51.564;5.460;2023-12-07T08:21:51;101683.31;;;-0.35;100.00
58473;BME280;44775;51.564;5.460;2023-12-07T08:24:17;101681.63;;;-0.36;100.00
58473;BME280;44775;51.564;5.460;2023-12-07T08:26:42;101687.72;;;-0.36;100.00
58473;BME280;44775;51.564;5.460;2023-12-07T08:29:08;101681.38;;;-0.32;100.00
58473;BME280;44775;51.564;5.460;2023-12-07T08:31:33;101689.13;;;-0.29;100.00
58473;BME280;44775;51.564;5.460;2023-12-07T08:33:58;101681.53;;;-0.35;100.00
58473;BME280;44775;51.564;5.460;2023-12-07T08:36:25;101671.66;;;-0.30;100.00
58473;BME280;44775;51.564;5.460;2023-12-07T08:38:51;101680.94;;;-0.22;100.00
58473;BME280;44775;51.564;5.460;2023-12-07T08:41:16;101689.50;;;-0.19;100.00
58473;BME280;44775;51.564;5.460;2023-12-07T08:43:41;101671.94;;;-0.18;100.00
58473;BME280;44775;51.564;5.460;2023-12-07T08:46:07;101682.41;;;-0.17;100.00
58473;BME280;44775;51.564;5.460;2023-12-07T08:48:33;101682.84;;;-0.26;100.00
58473;BME280;44775;51.564;5.460;2023-12-07T08:50:59;101688.81;;;-0.22;100.00
58473;BME280;44775;51.564;5.460;2023-12-07T08:53:24;101683.63;;;-0.07;100.00
58473;BME280;44775;51.564;5.460;2023-12-07T08:55:49;101690.47;;;-0.04;100.00
58473;BME280;44775;51.564;5.460;2023-12-07T08:58:15;101690.19;;;-0.15;100.00
58473;BME280;44775;51.564;5.460;2023-12-07T09:00:40;101694.28;;;-0.10;100.00
58473;BME280;44775;51.564;5.460;2023-12-07T09:03:05;101698.75;;;-0.12;100.00
58473;BME280;44775;51.564;5.460;2023-12-07T09:05:31;101688.88;;;-0.07;100.00
58473;BME280;44775;51.564;5.460;2023-12-07T09:07:56;101681.91;;;-0.08;100.00
58473;BME280;44775;51.564;5.460;2023-12-07T09:10:22;101679.66;;;0.02;100.00
58473;BME280;44775;51.564;5.460;2023-12-07T09:12:47;101674.13;;;0.07;100.00
58473;BME280;44775;51.564;5.460;2023-12-07T09:15:13;101666.19;;;0.08;100.00
58473;BME280;44775;51.564;5.460;2023-12-07T09:17:39;101670.03;;;0.18;100.00
58473;BME280;44775;51.564;5.460;2023-12-07T09:20:06;101675.88;;;0.23;100.00
58473;BME280;44775;51.564;5.460;2023-12-07T09:22:37;101670.63;;;0.23;100.00
58473;BME280;44775;51.564;5.460;2023-12-07T09:25:02;101672.75;;;0.33;100.00
58473;BME280;44775;51.564;5.460;2023-12-07T09:27:30;101677.59;;;0.25;100.00
58473;BME280;44775;51.564;5.460;2023-12-07T09:29:57;101677.75;;;0.21;100.00
58473;BME280;44775;51.564;5.460;2023-12-07T09:32:22;101670.88;;;0.19;100.00
58473;BME280;44775;51.564;5.460;2023-12-07T09:34:47;101669.72;;;0.25;100.00
58473;BME280;44775;51.564;5.460;2023-12-07T09:37:13;101666.81;;;0.29;100.00
58473;BME280;44775;51.564;5.460;2023-12-07T09:39:38;101664.53;;;0.39;100.00
58473;BME280;44775;51.564;5.460;2023-12-07T09:42:03;101671.16;;;0.46;100.00
58473;BME280;44775;51.564;5.460;2023-12-07T09:44:29;101662.16;;;0.50;100.00
58473;BME280;44775;51.564;5.460;2023-12-07T09:46:54;101660.16;;;0.55;100.00
58473;BME280;44775;51.564;5.460;2023-12-07T09:49:21;101659.13;;;0.74;100.00
58473;BME280;44775;51.564;5.460;2023-12-07T09:51:46;101649.38;;;0.76;100.00
58473;BME280;44775;51.564;5.460;2023-12-07T09:54:12;101654.53;;;0.77;100.00
58473;BME280;44775;51.564;5.460;2023-12-07T09:56:38;101654.13;;;0.69;100.00
58473;BME280;44775;51.564;5.460;2023-12-07T09:59:04;101646.13;;;0.70;100.00
58473;BME280;44775;51.564;5.460;2023-12-07T10:01:30;101637.84;;;0.78;100.00
58473;BME280;44775;51.564;5.460;2023-12-07T10:06:45;101617.69;;;0.93;100.00
58473;BME280;44775;51.564;5.460;2023-12-07T10:09:13;101613.28;;;0.93;100.00
58473;BME280;44775;51.564;5.460;2023-12-07T10:11:39;101616.06;;;1.06;100.00
58473;BME280;44775;51.564;5.460;2023-12-07T10:14:08;101608.97;;;1.23;100.00
58473;BME280;44775;51.564;5.460;2023-12-07T10:16:34;101595.63;;;1.26;100.00
58473;BME280;44775;51.564;5.460;2023-12-07T10:19:13;101589.63;;;1.38;100.00
58473;BME280;44775;51.564;5.460;2023-12-07T10:21:39;101589.09;;;1.61;100.00
58473;BME280;44775;51.564;5.460;2023-12-07T10:24:05;101588.28;;;1.89;100.00
58473;BME280;44775;51.564;5.460;2023-12-07T10:26:30;101593.53;;;2.04;100.00
58473;BME280;44775;51.564;5.460;2023-12-07T10:28:55;101588.56;;;1.99;100.00
58473;BME280;44775;51.564;5.460;2023-12-07T10:31:21;101578.38;;;2.07;100.00
58473;BME280;44775;51.564;5.460;2023-12-07T10:33:50;101575.81;;;2.20;100.00
58473;BME280;44775;51.564;5.460;2023-12-07T10:36:15;101573.44;;;2.16;100.00
58473;BME280;44775;51.564;5.460;2023-12-07T10:38:40;101569.66;;;2.34;100.00
58473;BME280;44775;51.564;5.460;2023-12-07T10:41:12;101569.16;;;2.42;100.00
58473;BME280;44775;51.564;5.460;2023-12-07T10:43:39;101571.28;;;2.36;100.00
58473;BME280;44775;51.564;5.460;2023-12-07T10:46:08;101570.41;;;2.36;100.00
58473;BME280;44775;51.564;5.460;2023-12-07T10:48:35;101553.66;;;2.23;100.00
58473;BME280;44775;51.564;5.460;2023-12-07T10:51:04;101554.22;;;2.28;100.00
58473;BME280;44775;51.564;5.460;2023-12-07T10:53:37;101554.78;;;2.33;100.00
58473;BME280;44775;51.564;5.460;2023-12-07T10:56:08;101547.75;;;2.46;100.00
58473;BME280;44775;51.564;5.460;2023-12-07T10:58:35;101548.00;;;2.56;100.00
58473;BME280;44775;51.564;5.460;2023-12-07T11:01:01;101540.75;;;2.59;100.00
58473;BME280;44775;51.564;5.460;2023-12-07T11:03:27;101545.13;;;2.46;100.00
58473;BME280;44775;51.564;5.460;2023-12-07T11:05:54;101541.63;;;2.60;100.00
58473;BME280;44775;51.564;5.460;2023-12-07T11:08:37;101535.75;;;2.82;100.00
58473;BME280;44775;51.564;5.460;2023-12-07T11:11:07;101528.16;;;2.90;100.00
58473;BME280;44775;51.564;5.460;2023-12-07T11:13:38;101532.94;;;2.98;100.00
58473;BME280;44775;51.564;5.460;2023-12-07T11:16:04;101521.97;;;3.04;100.00
58473;BME280;44775;51.564;5.460;2023-12-07T11:18:30;101516.06;;;3.00;100.00
58473;BME280;44775;51.564;5.460;2023-12-07T11:20:56;101511.63;;;3.01;100.00
58473;BME280;44775;51.564;5.460;2023-12-07T11:23:21;101495.03;;;3.12;100.00
58473;BME280;44775;51.564;5.460;2023-12-07T11:25:48;101492.84;;;3.31;100.00
58473;BME280;44775;51.564;5.460;2023-12-07T11:28:15;101496.41;;;3.30;100.00
58473;BME280;44775;51.564;5.460;2023-12-07T11:30:47;101481.66;;;3.27;100.00
58473;BME280;44775;51.564;5.460;2023-12-07T11:33:14;101484.25;;;3.40;100.00
58473;BME280;44775;51.564;5.460;2023-12-07T11:38:27;101487.31;;;3.60;100.00
58473;BME280;44775;51.564;5.460;2023-12-07T11:40:54;101482.31;;;3.68;100.00
58473;BME280;44775;51.564;5.460;2023-12-07T11:46:01;101470.47;;;3.73;100.00
58473;BME280;44775;51.564;5.460;2023-12-07T11:48:27;101466.75;;;3.89;100.00
58473;BME280;44775;51.564;5.460;2023-12-07T11:50:59;101473.03;;;4.12;100.00
58473;BME280;44775;51.564;5.460;2023-12-07T11:53:29;101458.88;;;4.24;100.00
58473;BME280;44775;51.564;5.460;2023-12-07T11:55:56;101467.34;;;4.29;100.00
58473;BME280;44775;51.564;5.460;2023-12-07T11:58:24;101468.44;;;4.38;100.00
58473;BME280;44775;51.564;5.460;2023-12-07T12:00:51;101461.75;;;4.45;100.00
58473;BME280;44775;51.564;5.460;2023-12-07T12:03:17;101453.13;;;4.54;100.00
58473;BME280;44775;51.564;5.460;2023-12-07T12:05:42;101455.97;;;4.75;100.00
58473;BME280;44775;51.564;5.460;2023-12-07T12:08:09;101455.03;;;4.76;100.00
58473;BME280;44775;51.564;5.460;2023-12-07T12:10:35;101451.94;;;4.93;100.00
58473;BME280;44775;51.564;5.460;2023-12-07T12:13:04;101442.03;;;4.95;100.00
58473;BME280;44775;51.564;5.460;2023-12-07T12:15:30;101439.38;;;4.84;100.00
58473;BME280;44775;51.564;5.460;2023-12-07T12:17:56;101445.19;;;4.89;100.00
58473;BME280;44775;51.564;5.460;2023-12-07T12:20:22;101451.47;;;5.00;100.00
58473;BME280;44775;51.564;5.460;2023-12-07T12:22:47;101434.69;;;4.99;100.00
58473;BME280;44775;51.564;5.460;2023-12-07T12:25:12;101430.03;;;5.14;100.00
58473;BME280;44775;51.564;5.460;2023-12-07T12:27:38;101429.56;;;5.20;100.00
58473;BME280;44775;51.564;5.460;2023-12-07T12:30:05;101418.75;;;5.23;100.00
58473;BME280;44775;51.564;5.460;2023-12-07T12:32:51;101410.28;;;5.29;100.00
58473;BME280;44775;51.564;5.460;2023-12-07T12:35:17;101409.91;;;5.11;100.00
58473;BME280;44775;51.564;5.460;2023-12-07T12:37:44;101417.25;;;5.19;100.00
58473;BME280;44775;51.564;5.460;2023-12-07T12:40:13;101420.16;;;5.16;100.00
58473;BME280;44775;51.564;5.460;2023-12-07T12:42:47;101410.53;;;5.15;100.00
58473;BME280;44775;51.564;5.460;2023-12-07T12:45:13;101406.44;;;5.11;100.00
58473;BME280;44775;51.564;5.460;2023-12-07T12:47:40;101396.69;;;5.11;100.00